createdAt,value
2022-11-25T00:01:24.822Z,12.10
2022-11-25T00:03:53.916Z,16.30
2022-11-25T00:06:21.906Z,16.27
2022-11-25T00:08:51.559Z,14.27
2022-11-25T00:11:18.904Z,15.43
2022-11-25T00:13:47.005Z,19.20
2022-11-25T00:16:16.217Z,15.90
2022-11-25T00:18:47.363Z,15.00
2022-11-25T00:21:16.492Z,16.73
2022-11-25T00:23:43.459Z,12.43
2022-11-25T00:26:15.071Z,13.07
2022-11-25T00:28:43.801Z,18.27
2022-11-25T00:31:13.358Z,14.30
2022-11-25T00:33:40.452Z,15.20
2022-11-25T00:36:14.825Z,16.10
2022-11-25T00:38:41.546Z,15.23
2022-11-25T00:41:26.768Z,14.80
2022-11-25T00:44:12.345Z,16.50
2022-11-25T00:46:39.142Z,16.63
2022-11-25T00:49:05.929Z,16.30
2022-11-25T00:51:32.672Z,16.90
2022-11-25T00:53:59.429Z,18.57
2022-11-25T00:56:26.723Z,25.40
2022-11-25T00:58:54.185Z,10.83
2022-11-25T01:01:21.068Z,14.67
2022-11-25T01:03:52.482Z,14.77
2022-11-25T01:06:19.850Z,18.27
2022-11-25T01:08:46.678Z,15.87
2022-11-25T01:11:15.530Z,18.43
2022-11-25T01:13:42.280Z,16.53
2022-11-25T01:16:11.469Z,19.87
2022-11-25T01:18:38.264Z,18.00
2022-11-25T01:21:19.664Z,22.70
2022-11-25T01:23:47.058Z,18.53
2022-11-25T01:26:16.531Z,18.80
2022-11-25T01:28:43.522Z,20.07
2022-11-25T01:31:11.508Z,18.67
2022-11-25T01:33:38.755Z,20.73
2022-11-25T01:36:10.831Z,20.80
2022-11-25T01:38:37.754Z,22.80
2022-11-25T01:41:05.908Z,21.43
2022-11-25T01:43:32.644Z,19.07
2022-11-25T01:46:22.695Z,20.67
2022-11-25T01:48:55.216Z,22.33
2022-11-25T01:51:55.912Z,15.57
2022-11-25T01:54:28.215Z,15.70
2022-11-25T01:57:03.917Z,18.87
2022-11-25T01:59:33.771Z,15.13
2022-11-25T02:02:00.965Z,22.80
2022-11-25T02:04:33.968Z,16.77
2022-11-25T02:07:29.839Z,20.33
2022-11-25T02:09:57.422Z,21.10
2022-11-25T02:12:24.435Z,12.50
2022-11-25T02:14:53.662Z,19.83
2022-11-25T02:17:20.720Z,24.87
2022-11-25T02:20:03.822Z,22.73
2022-11-25T02:23:06.953Z,22.27
2022-11-25T02:25:36.270Z,21.77
2022-11-25T02:28:19.880Z,24.83
2022-11-25T02:30:47.329Z,20.50
2022-11-25T02:33:15.784Z,17.00
2022-11-25T02:36:03.698Z,12.97
2022-11-25T02:38:47.422Z,18.17
2022-11-25T02:41:22.901Z,17.30
2022-11-25T02:43:49.585Z,26.70
2022-11-25T02:46:22.427Z,27.53
2022-11-25T02:49:09.232Z,23.93
2022-11-25T02:51:38.785Z,23.80
2022-11-25T02:54:06.364Z,21.27
2022-11-25T02:56:35.119Z,15.77
2022-11-25T02:59:02.894Z,18.50
2022-11-25T03:01:31.492Z,20.53
2022-11-25T03:03:59.065Z,16.87
2022-11-25T03:06:25.752Z,20.80
2022-11-25T03:08:52.466Z,25.10
2022-11-25T03:11:19.236Z,20.03
2022-11-25T03:13:45.928Z,19.47
2022-11-25T03:16:12.668Z,24.50
2022-11-25T03:18:39.404Z,14.23
2022-11-25T03:21:07.322Z,21.43
2022-11-25T03:23:34.140Z,20.10
2022-11-25T03:26:05.656Z,22.63
2022-11-25T03:28:32.333Z,22.83
2022-11-25T03:30:59.014Z,27.23
2022-11-25T03:33:25.776Z,18.17
2022-11-25T03:35:52.451Z,22.00
2022-11-25T03:38:19.185Z,20.00
2022-11-25T03:40:47.356Z,17.83
2022-11-25T03:43:14.037Z,27.10
2022-11-25T03:45:40.840Z,19.77
2022-11-25T03:48:07.609Z,21.80
2022-11-25T03:50:34.444Z,19.93
2022-11-25T03:53:01.126Z,21.63
2022-11-25T03:55:27.838Z,14.57
2022-11-25T03:57:54.613Z,16.60
2022-11-25T04:00:21.371Z,15.67
2022-11-25T04:02:48.138Z,18.00
2022-11-25T04:05:14.928Z,18.30
2022-11-25T04:07:41.736Z,20.23
2022-11-25T04:10:09.201Z,21.33
2022-11-25T04:12:48.059Z,24.60
2022-11-25T04:15:16.940Z,16.30
2022-11-25T04:17:43.756Z,23.47
2022-11-25T04:20:11.727Z,29.57
2022-11-25T04:22:38.448Z,17.87
2022-11-25T04:25:05.824Z,16.97
2022-11-25T04:27:32.560Z,24.77
2022-11-25T04:29:59.309Z,20.33
2022-11-25T04:32:26.040Z,21.90
2022-11-25T04:34:52.792Z,19.73
2022-11-25T04:37:19.637Z,20.20
2022-11-25T04:39:46.453Z,17.43
2022-11-25T04:42:31.739Z,20.93
2022-11-25T04:45:21.458Z,20.37
2022-11-25T04:47:46.301Z,25.80
2022-11-25T04:50:17.137Z,22.13
2022-11-25T04:52:43.903Z,23.07
2022-11-25T04:55:10.757Z,15.13
2022-11-25T04:57:37.891Z,18.13
2022-11-25T05:00:05.501Z,21.23
2022-11-25T05:02:32.411Z,16.03
2022-11-25T05:04:59.599Z,20.63
2022-11-25T05:07:28.360Z,16.70
2022-11-25T05:09:55.706Z,22.13
2022-11-25T05:12:26.924Z,22.90
2022-11-25T05:14:54.177Z,22.27
2022-11-25T05:17:26.800Z,21.67
2022-11-25T05:19:53.663Z,19.90
2022-11-25T05:22:23.759Z,15.20
2022-11-25T05:24:50.641Z,16.67
2022-11-25T05:27:18.274Z,18.53
2022-11-25T05:29:45.367Z,17.80
2022-11-25T05:32:12.715Z,15.80
2022-11-25T05:34:42.365Z,23.70
2022-11-25T05:37:10.570Z,15.90
2022-11-25T05:39:37.348Z,11.30
2022-11-25T05:42:04.391Z,10.17
2022-11-25T05:44:31.082Z,14.90
2022-11-25T05:46:57.890Z,12.20
2022-11-25T05:49:24.658Z,12.70
2022-11-25T05:51:51.484Z,11.63
2022-11-25T05:54:18.275Z,8.23
2022-11-25T05:56:44.969Z,9.23
2022-11-25T05:59:11.706Z,11.73
2022-11-25T06:01:38.413Z,18.63
2022-11-25T06:04:05.623Z,11.43
2022-11-25T06:06:32.727Z,9.80
2022-11-25T06:08:59.894Z,9.40
2022-11-25T06:11:26.765Z,8.97
2022-11-25T06:13:55.854Z,11.67
2022-11-25T06:16:23.770Z,13.27
2022-11-25T06:18:51.353Z,9.70
2022-11-25T06:21:18.372Z,11.77
2022-11-25T06:23:46.160Z,16.00
2022-11-25T06:26:19.494Z,15.13
2022-11-25T06:28:46.810Z,11.00
2022-11-25T06:31:16.433Z,16.23
2022-11-25T06:33:47.058Z,13.93
2022-11-25T06:36:17.297Z,13.63
2022-11-25T06:38:49.350Z,15.20
2022-11-25T06:41:16.489Z,11.73
2022-11-25T06:43:43.233Z,11.30
2022-11-25T06:46:18.533Z,14.60
2022-11-25T06:48:49.967Z,14.43
2022-11-25T06:51:18.287Z,15.73
2022-11-25T06:53:45.723Z,15.50
2022-11-25T06:56:13.450Z,16.30
2022-11-25T06:58:41.201Z,12.40
2022-11-25T07:01:13.909Z,19.93
2022-11-25T07:03:41.589Z,11.73
2022-11-25T07:06:08.393Z,19.10
2022-11-25T07:08:35.574Z,15.10
2022-11-25T07:11:07.439Z,19.07
2022-11-25T07:13:34.406Z,13.47
2022-11-25T07:16:03.167Z,13.67
2022-11-25T07:18:33.043Z,17.37
2022-11-25T07:21:08.772Z,14.60
2022-11-25T07:23:36.973Z,12.50
2022-11-25T07:26:09.086Z,18.40
2022-11-25T07:28:36.973Z,17.50
2022-11-25T07:31:28.621Z,12.17
2022-11-25T07:34:04.483Z,15.57
2022-11-25T07:36:33.154Z,12.77
2022-11-25T07:39:01.682Z,18.33
2022-11-25T07:41:29.300Z,17.47
2022-11-25T07:43:58.123Z,14.03
2022-11-25T07:46:30.910Z,15.53
2022-11-25T07:49:06.174Z,11.70
2022-11-25T07:51:48.351Z,19.37
2022-11-25T07:54:15.513Z,12.37
2022-11-25T07:56:44.800Z,17.60
2022-11-25T07:59:17.823Z,15.43
2022-11-25T08:01:45.084Z,19.57
2022-11-25T08:04:19.690Z,20.63
2022-11-25T08:06:49.219Z,13.17
2022-11-25T08:09:19.469Z,15.23
2022-11-25T08:11:47.413Z,17.90
2022-11-25T08:14:15.585Z,16.13
2022-11-25T08:16:42.900Z,15.77
2022-11-25T08:19:13.960Z,16.27
2022-11-25T08:21:41.068Z,25.30
2022-11-25T08:24:08.060Z,17.97
2022-11-25T08:26:37.695Z,16.23
2022-11-25T08:29:06.456Z,17.73
2022-11-25T08:31:35.846Z,11.93
2022-11-25T08:34:03.333Z,12.60
2022-11-25T08:36:30.964Z,15.57
2022-11-25T08:39:00.170Z,15.63
2022-11-25T08:41:30.235Z,14.83
2022-11-25T08:43:59.073Z,11.20
2022-11-25T08:46:30.228Z,10.50
2022-11-25T08:48:57.107Z,13.53
2022-11-25T08:51:27.085Z,10.93
2022-11-25T08:53:54.524Z,16.10
2022-11-25T08:56:26.236Z,12.97
2022-11-25T08:58:54.960Z,10.30
2022-11-25T09:01:23.672Z,15.73
2022-11-25T09:03:53.093Z,9.33
2022-11-25T09:06:21.249Z,13.93
2022-11-25T09:08:48.856Z,12.03
2022-11-25T09:11:15.851Z,12.23
2022-11-25T09:13:42.764Z,13.80
2022-11-25T09:16:09.774Z,16.10
2022-11-25T09:18:37.419Z,10.17
2022-11-25T09:21:12.981Z,11.20
2022-11-25T09:23:40.332Z,9.80
2022-11-25T09:26:08.537Z,14.97
2022-11-25T09:28:36.645Z,14.80
2022-11-25T09:31:08.504Z,15.93
2022-11-25T09:33:35.686Z,14.07
2022-11-25T09:36:03.812Z,12.77
2022-11-25T09:38:30.995Z,10.07
2022-11-25T09:41:07.937Z,8.60
2022-11-25T09:44:15.143Z,12.47
2022-11-25T09:47:09.214Z,13.07
2022-11-25T09:50:03.219Z,11.80
2022-11-25T09:52:53.266Z,11.20
2022-11-25T09:55:24.071Z,16.67
2022-11-25T09:58:09.598Z,11.87
2022-11-25T10:00:45.825Z,11.20
2022-11-25T10:03:37.532Z,14.57
2022-11-25T10:06:19.054Z,12.43
2022-11-25T10:08:51.716Z,12.20
2022-11-25T10:11:24.323Z,12.13
2022-11-25T10:14:00.678Z,14.93
2022-11-25T10:16:51.575Z,13.77
2022-11-25T10:19:33.116Z,12.87
2022-11-25T10:22:07.918Z,12.30
2022-11-25T10:24:39.852Z,8.53
2022-11-25T10:27:18.046Z,12.73
2022-11-25T10:29:51.083Z,15.00
2022-11-25T10:32:22.730Z,10.10
2022-11-25T10:34:54.323Z,15.60
2022-11-25T10:37:29.427Z,11.37
2022-11-25T10:39:56.806Z,9.43
2022-11-25T10:42:26.826Z,13.83
2022-11-25T10:44:54.954Z,17.30
2022-11-25T10:47:42.525Z,12.50
2022-11-25T10:50:24.719Z,13.90
2022-11-25T10:53:10.393Z,13.37
2022-11-25T10:55:37.446Z,9.33
2022-11-25T10:58:35.217Z,12.57
2022-11-25T11:01:25.628Z,9.93
2022-11-25T11:04:05.598Z,7.03
2022-11-25T11:06:43.259Z,13.07
2022-11-25T11:09:33.792Z,13.60
2022-11-25T11:12:14.618Z,12.90
2022-11-25T11:14:41.910Z,13.50
2022-11-25T11:17:36.033Z,8.27
2022-11-25T11:20:06.788Z,11.90
2022-11-25T11:22:35.579Z,12.77
2022-11-25T11:25:30.261Z,10.17
2022-11-25T11:27:58.234Z,15.43
2022-11-25T11:30:31.645Z,9.83
2022-11-25T11:33:04.722Z,12.97
2022-11-25T11:35:41.946Z,15.40
2022-11-25T11:38:31.367Z,13.67
2022-11-25T11:41:10.976Z,11.27
2022-11-25T11:43:45.636Z,13.47
2022-11-25T11:46:27.492Z,12.03
2022-11-25T11:49:05.875Z,11.63
2022-11-25T11:51:52.609Z,10.53
2022-11-25T11:54:37.006Z,13.87
2022-11-25T11:57:22.937Z,12.53
2022-11-25T11:59:53.518Z,14.13
2022-11-25T12:02:24.329Z,17.97
2022-11-25T12:05:15.794Z,18.00
2022-11-25T12:08:09.819Z,11.77
2022-11-25T12:10:48.407Z,14.00
2022-11-25T12:13:29.012Z,12.73
2022-11-25T12:16:04.831Z,17.00
2022-11-25T12:18:50.470Z,12.37
2022-11-25T12:21:44.516Z,18.57
2022-11-25T12:24:19.814Z,14.87
2022-11-25T12:27:10.769Z,10.80
2022-11-25T12:30:00.768Z,15.67
2022-11-25T12:32:45.621Z,15.17
2022-11-25T12:35:22.523Z,17.67
2022-11-25T12:38:22.166Z,14.77
2022-11-25T12:41:27.943Z,16.77
2022-11-25T12:44:03.599Z,18.03
2022-11-25T12:46:33.090Z,16.73
2022-11-25T12:49:01.795Z,18.77
2022-11-25T12:51:56.383Z,16.47
2022-11-25T12:54:50.656Z,16.37
2022-11-25T12:57:41.959Z,14.83
2022-11-25T13:00:41.394Z,15.73
2022-11-25T13:03:30.423Z,13.53
2022-11-25T13:06:19.950Z,15.13
2022-11-25T13:09:07.783Z,22.80
2022-11-25T13:11:52.970Z,12.30
2022-11-25T13:14:20.096Z,15.90
2022-11-25T13:16:49.529Z,13.73
2022-11-25T13:19:20.296Z,15.37
2022-11-25T13:22:00.831Z,18.60
2022-11-25T13:24:40.533Z,21.60
2022-11-25T13:27:53.102Z,10.17
2022-11-25T13:30:51.649Z,17.03
2022-11-25T13:33:18.328Z,13.77
2022-11-25T13:35:46.099Z,13.37
2022-11-25T13:38:35.753Z,14.27
2022-11-25T13:41:23.160Z,17.33
2022-11-25T13:44:01.669Z,25.73
2022-11-25T13:46:46.277Z,17.23
2022-11-25T13:49:25.381Z,20.30
2022-11-25T13:51:55.353Z,18.30
2022-11-25T13:54:27.254Z,15.40
2022-11-25T13:57:21.744Z,14.93
2022-11-25T13:59:55.574Z,17.17
2022-11-25T14:02:28.159Z,16.03
2022-11-25T14:05:26.148Z,12.40
2022-11-25T14:08:07.905Z,13.90
2022-11-25T14:11:00.124Z,13.30
2022-11-25T14:14:04.411Z,11.93
2022-11-25T14:16:39.007Z,13.83
2022-11-25T14:22:32.853Z,20.70
2022-11-25T14:25:44.218Z,13.00
2022-11-25T14:28:24.938Z,16.13
2022-11-25T14:30:55.898Z,14.67
2022-11-25T14:33:33.227Z,10.93
2022-11-25T14:36:07.753Z,12.77
2022-11-25T14:38:47.054Z,17.50
2022-11-25T14:41:21.098Z,17.03
2022-11-25T14:43:53.978Z,14.73
2022-11-25T14:46:23.340Z,18.90
2022-11-25T14:48:55.403Z,9.00
2022-11-25T14:51:24.158Z,17.40
2022-11-25T14:53:51.989Z,16.73
2022-11-25T14:56:28.984Z,14.93
2022-11-25T14:58:57.890Z,13.63
2022-11-25T15:01:29.743Z,14.83
2022-11-25T15:04:04.513Z,14.90
2022-11-25T15:06:37.659Z,15.57
2022-11-25T15:09:17.772Z,9.80
2022-11-25T15:11:44.740Z,15.90
2022-11-25T15:14:23.215Z,14.10
2022-11-25T15:16:50.100Z,9.60
2022-11-25T15:19:22.613Z,11.97
2022-11-25T15:24:54.751Z,17.60
2022-11-25T15:27:25.243Z,14.57
2022-11-25T15:29:53.297Z,17.37
2022-11-25T15:32:25.753Z,17.60
2022-11-25T15:34:55.719Z,20.27
2022-11-25T15:37:24.038Z,15.87
2022-11-25T15:40:11.086Z,18.00
2022-11-25T15:42:37.800Z,13.10
2022-11-25T15:45:11.286Z,22.60
2022-11-25T15:47:38.026Z,15.13
2022-11-25T15:50:26.368Z,17.67
2022-11-25T15:52:59.870Z,14.60
2022-11-25T15:55:39.981Z,14.00
2022-11-25T15:58:16.435Z,11.40
2022-11-25T16:01:19.811Z,14.03
2022-11-25T16:03:47.622Z,14.13
2022-11-25T16:06:22.219Z,13.00
2022-11-25T16:09:00.127Z,21.60
2022-11-25T16:11:34.054Z,17.67
2022-11-25T16:14:39.391Z,15.60
2022-11-25T16:17:11.245Z,21.43
2022-11-25T16:19:43.284Z,26.20
2022-11-25T16:22:16.764Z,28.83
2022-11-25T16:25:00.392Z,23.47
2022-11-25T16:27:29.830Z,18.60
2022-11-25T16:30:05.889Z,25.40
2022-11-25T16:32:33.867Z,22.27
2022-11-25T16:35:23.631Z,21.97
2022-11-25T16:37:50.378Z,19.37
2022-11-25T16:40:18.420Z,20.53
2022-11-25T16:42:50.202Z,32.53
2022-11-25T16:45:43.431Z,21.63
2022-11-25T16:48:19.943Z,23.17
2022-11-25T16:50:47.098Z,22.77
2022-11-25T16:53:13.920Z,22.53
2022-11-25T16:55:43.197Z,19.95
2022-11-25T16:58:21.967Z,27.65
2022-11-25T17:00:56.490Z,22.53
2022-11-25T17:03:26.961Z,23.70
2022-11-25T17:05:55.211Z,29.73
2022-11-25T17:08:22.383Z,24.67
2022-11-25T17:10:49.853Z,30.47
2022-11-25T17:13:21.754Z,27.50
2022-11-25T17:15:51.690Z,32.65
2022-11-25T17:18:19.276Z,32.97
2022-11-25T17:20:48.943Z,23.50
2022-11-25T17:23:17.129Z,29.97
2022-11-25T17:25:48.523Z,28.63
2022-11-25T17:28:19.207Z,29.60
2022-11-25T17:31:11.209Z,36.07
2022-11-25T17:33:45.926Z,35.23
2022-11-25T17:36:12.684Z,26.57
2022-11-25T17:38:41.217Z,38.43
2022-11-25T17:41:21.910Z,33.00
2022-11-25T17:43:51.859Z,32.80
2022-11-25T17:46:18.887Z,35.87
2022-11-25T17:48:45.969Z,35.97
2022-11-25T17:51:14.396Z,35.43
2022-11-25T17:53:41.863Z,36.87
2022-11-25T17:56:28.247Z,33.00
2022-11-25T17:58:57.162Z,38.20
2022-11-25T18:01:24.265Z,34.30
2022-11-25T18:03:53.088Z,46.27
2022-11-25T18:06:20.627Z,48.87
2022-11-25T18:08:47.565Z,48.93
2022-11-25T18:11:18.470Z,47.17
2022-11-25T18:13:47.050Z,34.07
2022-11-25T18:16:15.795Z,44.90
2022-11-25T18:18:42.611Z,33.20
2022-11-25T18:21:11.581Z,34.07
2022-11-25T18:23:38.309Z,46.00
2022-11-25T18:26:05.381Z,39.00
2022-11-25T18:28:32.692Z,44.40
2022-11-25T18:31:03.847Z,34.50
2022-11-25T18:33:31.967Z,43.40
2022-11-25T18:35:58.900Z,52.77
2022-11-25T18:38:25.768Z,37.97
2022-11-25T18:40:54.134Z,44.67
2022-11-25T18:43:24.971Z,37.23
2022-11-25T18:45:53.612Z,47.93
2022-11-25T18:48:23.279Z,43.90
2022-11-25T18:50:52.091Z,40.60
2022-11-25T18:53:19.023Z,35.27
2022-11-25T18:55:46.851Z,43.70
2022-11-25T18:58:23.649Z,48.97
2022-11-25T19:00:52.082Z,43.47
2022-11-25T19:03:22.035Z,37.67
2022-11-25T19:05:50.025Z,40.60
2022-11-25T19:08:18.576Z,56.50
2022-11-25T19:10:47.386Z,41.50
2022-11-25T19:13:19.692Z,49.00
2022-11-25T19:15:46.907Z,39.00
2022-11-25T19:18:22.754Z,43.23
2022-11-25T19:20:49.490Z,41.23
2022-11-25T19:23:28.862Z,49.20
2022-11-25T19:26:00.387Z,50.80
2022-11-25T19:28:29.273Z,50.33
2022-11-25T19:31:00.092Z,41.00
2022-11-25T19:33:32.291Z,37.77
2022-11-25T19:35:58.988Z,38.80
2022-11-25T19:38:26.259Z,42.27
2022-11-25T19:40:54.614Z,53.53
2022-11-25T19:43:22.772Z,48.03
2022-11-25T19:45:53.295Z,55.27
2022-11-25T19:48:21.419Z,47.60
2022-11-25T19:50:59.238Z,45.60
2022-11-25T19:53:33.111Z,53.53
2022-11-25T19:56:04.085Z,44.40
2022-11-25T19:58:34.127Z,45.40
2022-11-25T20:01:03.437Z,47.17
2022-11-25T20:03:31.651Z,46.20
2022-11-25T20:05:58.868Z,44.80
2022-11-25T20:08:27.853Z,41.50
2022-11-25T20:10:55.710Z,47.43
2022-11-25T20:13:26.251Z,42.30
2022-11-25T20:15:54.850Z,37.17
2022-11-25T20:18:24.483Z,50.60
2022-11-25T20:20:59.608Z,44.57
2022-11-25T20:23:32.714Z,50.03
2022-11-25T20:25:59.630Z,44.90
2022-11-25T20:28:30.066Z,46.50
2022-11-25T20:30:59.142Z,47.67
2022-11-25T20:33:26.875Z,52.23
2022-11-25T20:36:05.719Z,47.40
2022-11-25T20:38:35.223Z,42.73
2022-11-25T20:41:02.378Z,48.23
2022-11-25T20:43:33.433Z,93.13
2022-11-25T20:46:01.623Z,60.30
2022-11-25T20:48:28.903Z,55.57
2022-11-25T20:51:03.207Z,50.73
2022-11-25T20:53:32.108Z,54.80
2022-11-25T20:55:59.960Z,42.27
2022-11-25T20:58:31.907Z,55.90
2022-11-25T21:00:59.474Z,49.50
2022-11-25T21:03:26.786Z,51.90
2022-11-25T21:05:55.437Z,43.23
2022-11-25T21:08:25.279Z,51.90
2022-11-25T21:10:53.983Z,52.50
2022-11-25T21:13:29.353Z,41.60
2022-11-25T21:15:59.296Z,45.67
2022-11-25T21:18:26.054Z,45.97
2022-11-25T21:20:55.318Z,51.13
2022-11-25T21:23:32.365Z,42.97
2022-11-25T21:26:07.545Z,53.07
2022-11-25T21:28:38.469Z,57.93
2022-11-25T21:31:10.985Z,60.87
2022-11-25T21:33:38.243Z,52.17
2022-11-25T21:36:05.250Z,59.13
2022-11-25T21:38:31.977Z,57.90
2022-11-25T21:40:58.863Z,52.43
2022-11-25T21:43:33.191Z,51.80
2022-11-25T21:46:03.260Z,48.67
2022-11-25T21:48:31.095Z,48.80
2022-11-25T21:50:58.678Z,54.87
2022-11-25T21:53:25.739Z,50.80
2022-11-25T21:55:53.216Z,51.13
2022-11-25T21:58:25.236Z,51.97
2022-11-25T22:00:56.255Z,54.27
2022-11-25T22:03:23.966Z,54.10
2022-11-25T22:05:51.194Z,53.17
2022-11-25T22:08:18.136Z,56.70
2022-11-25T22:10:48.765Z,52.27
2022-11-25T22:13:34.129Z,57.77
2022-11-25T22:16:01.633Z,53.80
2022-11-25T22:18:31.972Z,59.67
2022-11-25T22:20:59.335Z,59.77
2022-11-25T22:23:26.418Z,56.67
2022-11-25T22:25:54.323Z,48.40
2022-11-25T22:28:24.745Z,49.57
2022-11-25T22:30:54.345Z,49.17
2022-11-25T22:33:28.170Z,50.27
2022-11-25T22:35:54.882Z,48.10
2022-11-25T22:38:22.907Z,49.57
2022-11-25T22:40:53.212Z,46.27
2022-11-25T22:43:36.228Z,45.20
2022-11-25T22:46:04.884Z,50.40
2022-11-25T22:48:35.317Z,43.40
2022-11-25T22:51:02.673Z,53.33
2022-11-25T22:53:29.620Z,43.23
2022-11-25T22:56:00.023Z,40.43
2022-11-25T22:58:27.740Z,46.70
2022-11-25T23:00:55.882Z,57.20
2022-11-25T23:03:33.329Z,47.03
2022-11-25T23:06:01.766Z,48.07
2022-11-25T23:08:31.590Z,43.70
2022-11-25T23:10:58.368Z,46.23
2022-11-25T23:13:25.143Z,42.90
2022-11-25T23:15:58.184Z,45.50
2022-11-25T23:18:39.907Z,45.97
2022-11-25T23:21:23.763Z,45.87
2022-11-25T23:23:51.264Z,45.23
2022-11-25T23:26:18.004Z,40.63
2022-11-25T23:28:44.949Z,45.83
2022-11-25T23:31:16.524Z,45.67
2022-11-25T23:33:50.637Z,44.33
2022-11-25T23:36:24.012Z,46.10
2022-11-25T23:38:56.767Z,47.17
2022-11-25T23:41:26.614Z,46.90
2022-11-25T23:43:54.045Z,50.77
2022-11-25T23:46:24.576Z,40.73
2022-11-25T23:48:58.102Z,44.47
2022-11-25T23:51:26.853Z,48.87
2022-11-25T23:53:55.631Z,53.07
2022-11-25T23:56:23.237Z,54.87
2022-11-25T23:58:50.482Z,43.77
